sensor_id;sensor_type;location;lat;lon;timestamp;P1;durP1;ratioP1;P2;durP2;ratioP2
58083;SDS011;43882;51.550;11.858;2023-12-22T00:02:08;12.70;;;2.50;;
58083;SDS011;43882;51.550;11.858;2023-12-22T00:04:34;13.20;;;3.00;;
58083;SDS011;43882;51.550;11.858;2023-12-22T00:07:00;14.68;;;2.75;;
58083;SDS011;43882;51.550;11.858;2023-12-22T00:09:27;15.23;;;2.95;;
58083;SDS011;43882;51.550;11.858;2023-12-22T00:11:53;15.52;;;2.88;;
58083;SDS011;43882;51.550;11.858;2023-12-22T00:14:19;18.23;;;3.33;;
58083;SDS011;43882;51.550;11.858;2023-12-22T00:16:45;15.85;;;3.10;;
58083;SDS011;43882;51.550;11.858;2023-12-22T00:19:11;17.63;;;3.60;;
58083;SDS011;43882;51.550;11.858;2023-12-22T00:21:37;17.75;;;3.13;;
58083;SDS011;43882;51.550;11.858;2023-12-22T00:24:03;17.30;;;2.90;;
58083;SDS011;43882;51.550;11.858;2023-12-22T00:26:29;18.38;;;2.97;;
58083;SDS011;43882;51.550;11.858;2023-12-22T00:28:55;14.88;;;2.67;;
58083;SDS011;43882;51.550;11.858;2023-12-22T00:31:22;19.85;;;3.70;;
58083;SDS011;43882;51.550;11.858;2023-12-22T00:33:48;19.85;;;3.58;;
58083;SDS011;43882;51.550;11.858;2023-12-22T00:36:14;17.38;;;3.00;;
58083;SDS011;43882;51.550;11.858;2023-12-22T00:38:41;21.58;;;4.38;;
58083;SDS011;43882;51.550;11.858;2023-12-22T00:41:07;20.88;;;3.50;;
58083;SDS011;43882;51.550;11.858;2023-12-22T00:43:33;19.08;;;3.38;;
58083;SDS011;43882;51.550;11.858;2023-12-22T00:45:59;16.35;;;2.65;;
58083;SDS011;43882;51.550;11.858;2023-12-22T00:48:25;16.77;;;3.95;;
58083;SDS011;43882;51.550;11.858;2023-12-22T00:50:51;19.30;;;2.80;;
58083;SDS011;43882;51.550;11.858;2023-12-22T00:53:17;17.63;;;3.20;;
58083;SDS011;43882;51.550;11.858;2023-12-22T00:55:43;17.20;;;3.13;;
58083;SDS011;43882;51.550;11.858;2023-12-22T00:58:09;15.43;;;2.88;;
58083;SDS011;43882;51.550;11.858;2023-12-22T01:00:35;17.00;;;3.05;;
58083;SDS011;43882;51.550;11.858;2023-12-22T01:03:01;19.10;;;4.15;;
58083;SDS011;43882;51.550;11.858;2023-12-22T01:05:28;19.15;;;3.35;;
58083;SDS011;43882;51.550;11.858;2023-12-22T01:07:54;19.48;;;3.20;;
58083;SDS011;43882;51.550;11.858;2023-12-22T01:10:20;16.48;;;3.60;;
58083;SDS011;43882;51.550;11.858;2023-12-22T01:12:46;22.23;;;3.45;;
58083;SDS011;43882;51.550;11.858;2023-12-22T01:15:12;17.05;;;3.65;;
58083;SDS011;43882;51.550;11.858;2023-12-22T01:17:38;18.88;;;3.55;;
58083;SDS011;43882;51.550;11.858;2023-12-22T01:20:04;22.15;;;3.65;;
58083;SDS011;43882;51.550;11.858;2023-12-22T01:22:31;18.88;;;3.47;;
58083;SDS011;43882;51.550;11.858;2023-12-22T01:24:59;19.58;;;3.08;;
58083;SDS011;43882;51.550;11.858;2023-12-22T01:27:26;13.88;;;3.03;;
58083;SDS011;43882;51.550;11.858;2023-12-22T01:29:52;19.63;;;3.20;;
58083;SDS011;43882;51.550;11.858;2023-12-22T01:32:18;15.32;;;3.33;;
58083;SDS011;43882;51.550;11.858;2023-12-22T01:34:44;20.73;;;3.47;;
58083;SDS011;43882;51.550;11.858;2023-12-22T01:37:11;16.70;;;3.30;;
58083;SDS011;43882;51.550;11.858;2023-12-22T01:39:37;18.88;;;3.15;;
58083;SDS011;43882;51.550;11.858;2023-12-22T01:42:03;16.08;;;3.20;;
58083;SDS011;43882;51.550;11.858;2023-12-22T01:44:29;23.88;;;3.65;;
58083;SDS011;43882;51.550;11.858;2023-12-22T01:46:55;21.63;;;3.80;;
58083;SDS011;43882;51.550;11.858;2023-12-22T01:49:22;16.60;;;2.92;;
58083;SDS011;43882;51.550;11.858;2023-12-22T01:51:48;18.27;;;3.05;;
58083;SDS011;43882;51.550;11.858;2023-12-22T01:54:15;18.23;;;3.17;;
58083;SDS011;43882;51.550;11.858;2023-12-22T01:56:41;15.38;;;2.67;;
58083;SDS011;43882;51.550;11.858;2023-12-22T01:59:08;15.68;;;2.58;;
58083;SDS011;43882;51.550;11.858;2023-12-22T02:01:35;17.27;;;3.00;;
58083;SDS011;43882;51.550;11.858;2023-12-22T02:04:01;18.70;;;4.00;;
58083;SDS011;43882;51.550;11.858;2023-12-22T02:06:28;17.95;;;3.40;;
58083;SDS011;43882;51.550;11.858;2023-12-22T02:08:56;17.88;;;2.95;;
58083;SDS011;43882;51.550;11.858;2023-12-22T02:11:23;15.68;;;3.53;;
58083;SDS011;43882;51.550;11.858;2023-12-22T02:13:49;16.80;;;3.20;;
58083;SDS011;43882;51.550;11.858;2023-12-22T02:16:26;12.23;;;2.50;;
58083;SDS011;43882;51.550;11.858;2023-12-22T02:18:58;14.40;;;2.58;;
58083;SDS011;43882;51.550;11.858;2023-12-22T02:21:26;15.45;;;3.33;;
58083;SDS011;43882;51.550;11.858;2023-12-22T02:23:52;17.08;;;3.05;;
58083;SDS011;43882;51.550;11.858;2023-12-22T02:26:24;14.52;;;3.05;;
58083;SDS011;43882;51.550;11.858;2023-12-22T02:28:52;14.13;;;2.70;;
58083;SDS011;43882;51.550;11.858;2023-12-22T02:31:33;15.18;;;3.22;;
58083;SDS011;43882;51.550;11.858;2023-12-22T02:34:03;16.27;;;2.83;;
58083;SDS011;43882;51.550;11.858;2023-12-22T02:36:32;14.55;;;2.60;;
58083;SDS011;43882;51.550;11.858;2023-12-22T02:39:00;18.52;;;2.95;;
58083;SDS011;43882;51.550;11.858;2023-12-22T02:41:27;19.33;;;4.22;;
58083;SDS011;43882;51.550;11.858;2023-12-22T02:43:53;12.73;;;2.60;;
58083;SDS011;43882;51.550;11.858;2023-12-22T02:46:19;15.20;;;2.92;;
58083;SDS011;43882;51.550;11.858;2023-12-22T02:48:45;16.45;;;3.20;;
58083;SDS011;43882;51.550;11.858;2023-12-22T02:51:11;16.63;;;3.05;;
58083;SDS011;43882;51.550;11.858;2023-12-22T02:53:37;14.82;;;2.60;;
58083;SDS011;43882;51.550;11.858;2023-12-22T02:56:03;16.67;;;3.35;;
58083;SDS011;43882;51.550;11.858;2023-12-22T02:58:30;17.75;;;3.53;;
58083;SDS011;43882;51.550;11.858;2023-12-22T03:00:56;17.80;;;2.97;;
58083;SDS011;43882;51.550;11.858;2023-12-22T03:03:22;20.08;;;3.53;;
58083;SDS011;43882;51.550;11.858;2023-12-22T03:05:48;15.93;;;3.03;;
58083;SDS011;43882;51.550;11.858;2023-12-22T03:08:14;17.83;;;3.33;;
58083;SDS011;43882;51.550;11.858;2023-12-22T03:10:40;16.10;;;2.70;;
58083;SDS011;43882;51.550;11.858;2023-12-22T03:13:06;16.33;;;2.80;;
58083;SDS011;43882;51.550;11.858;2023-12-22T03:15:32;16.52;;;2.92;;
58083;SDS011;43882;51.550;11.858;2023-12-22T03:17:58;19.25;;;3.40;;
58083;SDS011;43882;51.550;11.858;2023-12-22T03:20:24;12.05;;;2.40;;
58083;SDS011;43882;51.550;11.858;2023-12-22T03:22:50;12.32;;;2.67;;
58083;SDS011;43882;51.550;11.858;2023-12-22T03:25:16;14.77;;;2.72;;
58083;SDS011;43882;51.550;11.858;2023-12-22T03:27:42;11.20;;;2.30;;
58083;SDS011;43882;51.550;11.858;2023-12-22T03:30:09;13.00;;;2.40;;
58083;SDS011;43882;51.550;11.858;2023-12-22T03:32:35;12.35;;;2.42;;
58083;SDS011;43882;51.550;11.858;2023-12-22T03:35:01;11.73;;;2.40;;
58083;SDS011;43882;51.550;11.858;2023-12-22T03:37:27;13.40;;;2.05;;
58083;SDS011;43882;51.550;11.858;2023-12-22T03:39:53;11.55;;;2.00;;
58083;SDS011;43882;51.550;11.858;2023-12-22T03:42:19;13.48;;;2.63;;
58083;SDS011;43882;51.550;11.858;2023-12-22T03:44:45;16.02;;;2.20;;
58083;SDS011;43882;51.550;11.858;2023-12-22T03:47:12;17.42;;;3.00;;
58083;SDS011;43882;51.550;11.858;2023-12-22T03:49:40;11.82;;;2.13;;
58083;SDS011;43882;51.550;11.858;2023-12-22T03:52:06;17.27;;;2.42;;
58083;SDS011;43882;51.550;11.858;2023-12-22T03:54:32;15.70;;;3.45;;
58083;SDS011;43882;51.550;11.858;2023-12-22T03:56:58;12.82;;;2.50;;
58083;SDS011;43882;51.550;11.858;2023-12-22T03:59:24;11.90;;;1.98;;
58083;SDS011;43882;51.550;11.858;2023-12-22T04:01:51;6.07;;;1.88;;
58083;SDS011;43882;51.550;11.858;2023-12-22T04:04:22;7.22;;;2.13;;
58083;SDS011;43882;51.550;11.858;2023-12-22T04:06:48;11.20;;;2.15;;
58083;SDS011;43882;51.550;11.858;2023-12-22T04:09:14;8.20;;;1.95;;
58083;SDS011;43882;51.550;11.858;2023-12-22T04:11:40;8.35;;;1.95;;
58083;SDS011;43882;51.550;11.858;2023-12-22T04:14:07;12.23;;;2.13;;
58083;SDS011;43882;51.550;11.858;2023-12-22T04:16:34;11.48;;;2.30;;
58083;SDS011;43882;51.550;11.858;2023-12-22T04:19:02;11.55;;;2.10;;
58083;SDS011;43882;51.550;11.858;2023-12-22T04:21:28;9.25;;;2.30;;
58083;SDS011;43882;51.550;11.858;2023-12-22T04:23:54;14.38;;;2.22;;
58083;SDS011;43882;51.550;11.858;2023-12-22T04:26:21;6.40;;;1.70;;
58083;SDS011;43882;51.550;11.858;2023-12-22T04:28:47;18.40;;;2.22;;
58083;SDS011;43882;51.550;11.858;2023-12-22T04:31:13;11.23;;;2.40;;
58083;SDS011;43882;51.550;11.858;2023-12-22T04:33:39;7.72;;;1.67;;
58083;SDS011;43882;51.550;11.858;2023-12-22T04:36:05;10.23;;;1.83;;
58083;SDS011;43882;51.550;11.858;2023-12-22T04:38:31;11.70;;;1.98;;
58083;SDS011;43882;51.550;11.858;2023-12-22T04:40:57;12.40;;;2.65;;
58083;SDS011;43882;51.550;11.858;2023-12-22T04:43:24;10.77;;;2.10;;
58083;SDS011;43882;51.550;11.858;2023-12-22T04:45:50;8.63;;;1.90;;
58083;SDS011;43882;51.550;11.858;2023-12-22T04:48:16;5.22;;;1.52;;
58083;SDS011;43882;51.550;11.858;2023-12-22T04:50:43;12.15;;;2.05;;
58083;SDS011;43882;51.550;11.858;2023-12-22T04:53:09;9.93;;;2.00;;
58083;SDS011;43882;51.550;11.858;2023-12-22T04:55:35;7.15;;;1.70;;
58083;SDS011;43882;51.550;11.858;2023-12-22T04:58:01;9.52;;;2.03;;
58083;SDS011;43882;51.550;11.858;2023-12-22T05:00:27;9.35;;;1.75;;
58083;SDS011;43882;51.550;11.858;2023-12-22T05:02:53;9.18;;;1.83;;
58083;SDS011;43882;51.550;11.858;2023-12-22T05:05:19;8.35;;;1.75;;
58083;SDS011;43882;51.550;11.858;2023-12-22T05:07:45;9.27;;;2.55;;
58083;SDS011;43882;51.550;11.858;2023-12-22T05:10:11;13.73;;;2.50;;
58083;SDS011;43882;51.550;11.858;2023-12-22T05:12:37;8.13;;;1.75;;
58083;SDS011;43882;51.550;11.858;2023-12-22T05:15:03;11.00;;;2.20;;
58083;SDS011;43882;51.550;11.858;2023-12-22T05:17:30;12.55;;;2.42;;
58083;SDS011;43882;51.550;11.858;2023-12-22T05:19:57;12.38;;;2.10;;
58083;SDS011;43882;51.550;11.858;2023-12-22T05:22:23;13.02;;;2.05;;
58083;SDS011;43882;51.550;11.858;2023-12-22T05:24:49;9.52;;;2.13;;
58083;SDS011;43882;51.550;11.858;2023-12-22T05:27:15;14.02;;;2.50;;
58083;SDS011;43882;51.550;11.858;2023-12-22T05:29:42;13.23;;;2.47;;
58083;SDS011;43882;51.550;11.858;2023-12-22T05:32:08;11.45;;;2.13;;
58083;SDS011;43882;51.550;11.858;2023-12-22T05:34:34;13.68;;;2.70;;
58083;SDS011;43882;51.550;11.858;2023-12-22T05:37:01;12.10;;;2.40;;
58083;SDS011;43882;51.550;11.858;2023-12-22T05:39:27;11.82;;;2.28;;
58083;SDS011;43882;51.550;11.858;2023-12-22T05:41:53;11.55;;;2.50;;
58083;SDS011;43882;51.550;11.858;2023-12-22T05:44:19;17.63;;;3.45;;
58083;SDS011;43882;51.550;11.858;2023-12-22T05:46:47;14.73;;;2.47;;
58083;SDS011;43882;51.550;11.858;2023-12-22T05:49:13;14.25;;;2.63;;
58083;SDS011;43882;51.550;11.858;2023-12-22T05:51:39;14.82;;;2.42;;
58083;SDS011;43882;51.550;11.858;2023-12-22T05:54:09;11.98;;;2.38;;
58083;SDS011;43882;51.550;11.858;2023-12-22T05:56:36;12.75;;;2.42;;
58083;SDS011;43882;51.550;11.858;2023-12-22T05:59:02;12.07;;;2.42;;
58083;SDS011;43882;51.550;11.858;2023-12-22T06:01:28;11.85;;;2.42;;
58083;SDS011;43882;51.550;11.858;2023-12-22T06:03:54;9.02;;;2.85;;
58083;SDS011;43882;51.550;11.858;2023-12-22T06:06:21;9.38;;;2.08;;
58083;SDS011;43882;51.550;11.858;2023-12-22T06:08:47;12.15;;;2.25;;
58083;SDS011;43882;51.550;11.858;2023-12-22T06:11:13;11.00;;;2.80;;
58083;SDS011;43882;51.550;11.858;2023-12-22T06:13:39;11.63;;;2.50;;
58083;SDS011;43882;51.550;11.858;2023-12-22T06:16:06;9.85;;;2.10;;
58083;SDS011;43882;51.550;11.858;2023-12-22T06:18:36;13.55;;;2.60;;
58083;SDS011;43882;51.550;11.858;2023-12-22T06:21:02;16.23;;;2.55;;
58083;SDS011;43882;51.550;11.858;2023-12-22T06:23:28;13.77;;;2.65;;
58083;SDS011;43882;51.550;11.858;2023-12-22T06:25:55;15.25;;;2.30;;
58083;SDS011;43882;51.550;11.858;2023-12-22T06:28:21;11.85;;;2.10;;
58083;SDS011;43882;51.550;11.858;2023-12-22T06:30:47;9.85;;;2.25;;
58083;SDS011;43882;51.550;11.858;2023-12-22T06:33:13;13.75;;;2.30;;
58083;SDS011;43882;51.550;11.858;2023-12-22T06:35:39;11.50;;;2.33;;
58083;SDS011;43882;51.550;11.858;2023-12-22T06:38:09;11.35;;;1.90;;
58083;SDS011;43882;51.550;11.858;2023-12-22T06:40:36;15.25;;;3.60;;
58083;SDS011;43882;51.550;11.858;2023-12-22T06:43:03;18.23;;;2.50;;
58083;SDS011;43882;51.550;11.858;2023-12-22T06:45:29;13.95;;;2.35;;
58083;SDS011;43882;51.550;11.858;2023-12-22T06:47:55;14.63;;;2.90;;
58083;SDS011;43882;51.550;11.858;2023-12-22T06:50:22;9.27;;;2.15;;
58083;SDS011;43882;51.550;11.858;2023-12-22T06:52:48;12.77;;;2.28;;
58083;SDS011;43882;51.550;11.858;2023-12-22T06:55:14;11.68;;;2.25;;
58083;SDS011;43882;51.550;11.858;2023-12-22T06:57:41;11.57;;;2.25;;
58083;SDS011;43882;51.550;11.858;2023-12-22T07:00:08;11.63;;;1.92;;
58083;SDS011;43882;51.550;11.858;2023-12-22T07:02:35;10.85;;;2.35;;
58083;SDS011;43882;51.550;11.858;2023-12-22T07:07:48;13.70;;;2.20;;
58083;SDS011;43882;51.550;11.858;2023-12-22T07:10:15;16.67;;;2.80;;
58083;SDS011;43882;51.550;11.858;2023-12-22T07:12:41;11.95;;;2.42;;
58083;SDS011;43882;51.550;11.858;2023-12-22T07:15:08;8.73;;;1.85;;
58083;SDS011;43882;51.550;11.858;2023-12-22T07:17:34;12.85;;;2.22;;
58083;SDS011;43882;51.550;11.858;2023-12-22T07:20:00;14.07;;;2.33;;
58083;SDS011;43882;51.550;11.858;2023-12-22T07:22:28;10.32;;;2.00;;
58083;SDS011;43882;51.550;11.858;2023-12-22T07:24:54;9.45;;;2.95;;
58083;SDS011;43882;51.550;11.858;2023-12-22T07:27:20;10.57;;;1.88;;
58083;SDS011;43882;51.550;11.858;2023-12-22T07:29:46;10.23;;;2.13;;
58083;SDS011;43882;51.550;11.858;2023-12-22T07:32:12;14.63;;;2.42;;
58083;SDS011;43882;51.550;11.858;2023-12-22T07:34:39;12.98;;;2.55;;
58083;SDS011;43882;51.550;11.858;2023-12-22T07:37:05;12.32;;;2.47;;
58083;SDS011;43882;51.550;11.858;2023-12-22T07:39:31;9.40;;;1.92;;
58083;SDS011;43882;51.550;11.858;2023-12-22T07:41:57;9.30;;;1.80;;
58083;SDS011;43882;51.550;11.858;2023-12-22T07:44:23;13.05;;;2.47;;
58083;SDS011;43882;51.550;11.858;2023-12-22T07:46:55;12.82;;;2.22;;
58083;SDS011;43882;51.550;11.858;2023-12-22T07:49:23;12.57;;;2.15;;
58083;SDS011;43882;51.550;11.858;2023-12-22T07:51:50;13.93;;;2.58;;
58083;SDS011;43882;51.550;11.858;2023-12-22T07:54:17;9.00;;;1.85;;
58083;SDS011;43882;51.550;11.858;2023-12-22T07:56:43;12.73;;;2.20;;
58083;SDS011;43882;51.550;11.858;2023-12-22T07:59:09;9.88;;;2.20;;
58083;SDS011;43882;51.550;11.858;2023-12-22T08:01:35;8.73;;;1.90;;
58083;SDS011;43882;51.550;11.858;2023-12-22T08:04:01;9.40;;;2.33;;
58083;SDS011;43882;51.550;11.858;2023-12-22T08:06:27;9.90;;;1.70;;
58083;SDS011;43882;51.550;11.858;2023-12-22T08:08:53;11.95;;;2.45;;
58083;SDS011;43882;51.550;11.858;2023-12-22T08:11:20;10.18;;;2.63;;
58083;SDS011;43882;51.550;11.858;2023-12-22T08:13:49;6.82;;;1.73;;
58083;SDS011;43882;51.550;11.858;2023-12-22T08:16:15;9.27;;;1.60;;
58083;SDS011;43882;51.550;11.858;2023-12-22T08:18:41;8.20;;;1.48;;
58083;SDS011;43882;51.550;11.858;2023-12-22T08:21:07;5.10;;;1.33;;
58083;SDS011;43882;51.550;11.858;2023-12-22T08:23:33;9.95;;;1.50;;
58083;SDS011;43882;51.550;11.858;2023-12-22T08:25:59;9.88;;;1.60;;
58083;SDS011;43882;51.550;11.858;2023-12-22T08:28:26;9.73;;;1.67;;
58083;SDS011;43882;51.550;11.858;2023-12-22T08:30:52;10.93;;;1.83;;
58083;SDS011;43882;51.550;11.858;2023-12-22T08:33:18;10.38;;;1.90;;
58083;SDS011;43882;51.550;11.858;2023-12-22T08:35:44;9.85;;;1.80;;
58083;SDS011;43882;51.550;11.858;2023-12-22T08:38:10;8.45;;;1.58;;
58083;SDS011;43882;51.550;11.858;2023-12-22T08:40:38;3.53;;;0.98;;
58083;SDS011;43882;51.550;11.858;2023-12-22T08:43:04;5.80;;;1.58;;
58083;SDS011;43882;51.550;11.858;2023-12-22T08:45:31;4.43;;;1.20;;
58083;SDS011;43882;51.550;11.858;2023-12-22T08:47:57;6.75;;;1.48;;
58083;SDS011;43882;51.550;11.858;2023-12-22T08:50:24;6.25;;;1.55;;
58083;SDS011;43882;51.550;11.858;2023-12-22T08:52:50;2.22;;;1.23;;
58083;SDS011;43882;51.550;11.858;2023-12-22T09:38:39;4.72;;;1.60;;
58083;SDS011;43882;51.550;11.858;2023-12-22T09:41:06;6.47;;;2.33;;
58083;SDS011;43882;51.550;11.858;2023-12-22T09:43:33;7.10;;;1.80;;
58083;SDS011;43882;51.550;11.858;2023-12-22T09:46:03;3.85;;;1.75;;
58083;SDS011;43882;51.550;11.858;2023-12-22T09:48:30;5.85;;;1.42;;
58083;SDS011;43882;51.550;11.858;2023-12-22T09:50:56;3.95;;;1.40;;
58083;SDS011;43882;51.550;11.858;2023-12-22T09:53:23;7.28;;;2.05;;
58083;SDS011;43882;51.550;11.858;2023-12-22T09:55:50;8.88;;;1.75;;
58083;SDS011;43882;51.550;11.858;2023-12-22T09:58:16;6.00;;;1.90;;
58083;SDS011;43882;51.550;11.858;2023-12-22T10:00:42;9.63;;;2.28;;
58083;SDS011;43882;51.550;11.858;2023-12-22T10:03:10;8.77;;;2.15;;
58083;SDS011;43882;51.550;11.858;2023-12-22T10:05:37;9.02;;;1.60;;
58083;SDS011;43882;51.550;11.858;2023-12-22T10:08:06;6.43;;;1.50;;
58083;SDS011;43882;51.550;11.858;2023-12-22T10:10:35;10.23;;;1.95;;
58083;SDS011;43882;51.550;11.858;2023-12-22T10:13:02;8.02;;;1.60;;
58083;SDS011;43882;51.550;11.858;2023-12-22T10:15:32;6.43;;;1.60;;
58083;SDS011;43882;51.550;11.858;2023-12-22T10:17:58;12.73;;;2.25;;
58083;SDS011;43882;51.550;11.858;2023-12-22T10:20:24;9.02;;;1.80;;
58083;SDS011;43882;51.550;11.858;2023-12-22T10:22:50;13.50;;;2.50;;
58083;SDS011;43882;51.550;11.858;2023-12-22T10:25:19;14.02;;;3.22;;
58083;SDS011;43882;51.550;11.858;2023-12-22T10:27:47;21.35;;;3.58;;
58083;SDS011;43882;51.550;11.858;2023-12-22T10:30:13;15.48;;;3.08;;
58083;SDS011;43882;51.550;11.858;2023-12-22T10:32:40;13.68;;;2.55;;
58083;SDS011;43882;51.550;11.858;2023-12-22T10:35:09;15.00;;;2.30;;
58083;SDS011;43882;51.550;11.858;2023-12-22T10:37:36;16.95;;;2.28;;
58083;SDS011;43882;51.550;11.858;2023-12-22T10:40:08;12.25;;;2.55;;
58083;SDS011;43882;51.550;11.858;2023-12-22T10:42:35;17.52;;;3.08;;
58083;SDS011;43882;51.550;11.858;2023-12-22T10:45:02;18.35;;;2.72;;
58083;SDS011;43882;51.550;11.858;2023-12-22T10:47:29;20.17;;;3.13;;
58083;SDS011;43882;51.550;11.858;2023-12-22T10:49:55;16.08;;;2.80;;
58083;SDS011;43882;51.550;11.858;2023-12-22T10:52:21;23.48;;;2.90;;
58083;SDS011;43882;51.550;11.858;2023-12-22T10:54:48;16.55;;;2.85;;
58083;SDS011;43882;51.550;11.858;2023-12-22T10:57:17;18.00;;;3.47;;
58083;SDS011;43882;51.550;11.858;2023-12-22T10:59:47;15.32;;;2.40;;
58083;SDS011;43882;51.550;11.858;2023-12-22T11:02:15;13.60;;;2.63;;
58083;SDS011;43882;51.550;11.858;2023-12-22T11:04:47;17.02;;;2.63;;
58083;SDS011;43882;51.550;11.858;2023-12-22T11:07:26;13.73;;;2.78;;
58083;SDS011;43882;51.550;11.858;2023-12-22T11:09:55;17.20;;;2.83;;
58083;SDS011;43882;51.550;11.858;2023-12-22T11:12:23;12.98;;;3.03;;
58083;SDS011;43882;51.550;11.858;2023-12-22T11:14:49;14.02;;;2.42;;
58083;SDS011;43882;51.550;11.858;2023-12-22T11:17:19;12.65;;;2.40;;
58083;SDS011;43882;51.550;11.858;2023-12-22T11:19:47;10.32;;;2.50;;
58083;SDS011;43882;51.550;11.858;2023-12-22T11:22:18;15.73;;;2.47;;
58083;SDS011;43882;51.550;11.858;2023-12-22T11:24:46;17.52;;;2.70;;
58083;SDS011;43882;51.550;11.858;2023-12-22T11:27:13;15.45;;;3.13;;
58083;SDS011;43882;51.550;11.858;2023-12-22T11:29:44;13.52;;;3.22;;
58083;SDS011;43882;51.550;11.858;2023-12-22T11:32:17;10.52;;;2.20;;
58083;SDS011;43882;51.550;11.858;2023-12-22T11:34:44;34.65;;;16.15;;
58083;SDS011;43882;51.550;11.858;2023-12-22T11:37:12;17.35;;;3.92;;
58083;SDS011;43882;51.550;11.858;2023-12-22T11:39:42;12.25;;;2.55;;
58083;SDS011;43882;51.550;11.858;2023-12-22T11:42:10;17.70;;;4.50;;
58083;SDS011;43882;51.550;11.858;2023-12-22T11:44:38;10.35;;;2.55;;
58083;SDS011;43882;51.550;11.858;2023-12-22T11:47:06;16.10;;;6.93;;
58083;SDS011;43882;51.550;11.858;2023-12-22T11:49:33;11.73;;;3.28;;
58083;SDS011;43882;51.550;11.858;2023-12-22T11:52:09;8.63;;;2.25;;
58083;SDS011;43882;51.550;11.858;2023-12-22T11:54:45;13.43;;;2.42;;
58083;SDS011;43882;51.550;11.858;2023-12-22T11:59:58;15.57;;;2.50;;
58083;SDS011;43882;51.550;11.858;2023-12-22T12:02:29;7.60;;;1.90;;
58083;SDS011;43882;51.550;11.858;2023-12-22T12:04:57;10.32;;;1.98;;
58083;SDS011;43882;51.550;11.858;2023-12-22T12:10:09;7.72;;;1.80;;
58083;SDS011;43882;51.550;11.858;2023-12-22T12:15:30;15.07;;;3.00;;
58083;SDS011;43882;51.550;11.858;2023-12-22T12:17:59;11.38;;;3.05;;
58083;SDS011;43882;51.550;11.858;2023-12-22T12:20:25;8.90;;;2.30;;
58083;SDS011;43882;51.550;11.858;2023-12-22T12:22:52;13.52;;;2.80;;
58083;SDS011;43882;51.550;11.858;2023-12-22T12:25:19;11.77;;;2.60;;
58083;SDS011;43882;51.550;11.858;2023-12-22T12:27:49;10.48;;;2.20;;
58083;SDS011;43882;51.550;11.858;2023-12-22T12:30:16;18.67;;;4.78;;
58083;SDS011;43882;51.550;11.858;2023-12-22T12:32:42;14.23;;;3.67;;
58083;SDS011;43882;51.550;11.858;2023-12-22T12:35:11;12.15;;;3.10;;
58083;SDS011;43882;51.550;11.858;2023-12-22T12:37:38;15.30;;;3.40;;
58083;SDS011;43882;51.550;11.858;2023-12-22T12:40:05;12.38;;;2.92;;
58083;SDS011;43882;51.550;11.858;2023-12-22T12:42:35;16.50;;;3.30;;
58083;SDS011;43882;51.550;11.858;2023-12-22T12:45:03;16.40;;;3.97;;
58083;SDS011;43882;51.550;11.858;2023-12-22T12:47:30;15.73;;;3.53;;
58083;SDS011;43882;51.550;11.858;2023-12-22T12:49:59;14.88;;;3.03;;
58083;SDS011;43882;51.550;11.858;2023-12-22T12:52:26;15.13;;;3.25;;
58083;SDS011;43882;51.550;11.858;2023-12-22T12:54:53;15.57;;;3.20;;
58083;SDS011;43882;51.550;11.858;2023-12-22T12:57:19;14.45;;;3.45;;
58083;SDS011;43882;51.550;11.858;2023-12-22T12:59:49;16.08;;;3.72;;
58083;SDS011;43882;51.550;11.858;2023-12-22T13:02:16;15.18;;;3.88;;
58083;SDS011;43882;51.550;11.858;2023-12-22T13:04:42;16.58;;;3.50;;
58083;SDS011;43882;51.550;11.858;2023-12-22T13:07:08;15.25;;;3.03;;
58083;SDS011;43882;51.550;11.858;2023-12-22T13:09:37;16.75;;;4.22;;
58083;SDS011;43882;51.550;11.858;2023-12-22T13:12:03;17.25;;;4.88;;
58083;SDS011;43882;51.550;11.858;2023-12-22T13:14:29;18.35;;;4.75;;
58083;SDS011;43882;51.550;11.858;2023-12-22T13:16:56;20.48;;;4.25;;
58083;SDS011;43882;51.550;11.858;2023-12-22T13:19:23;25.35;;;9.10;;
58083;SDS011;43882;51.550;11.858;2023-12-22T13:21:50;21.13;;;6.32;;
58083;SDS011;43882;51.550;11.858;2023-12-22T13:24:17;15.23;;;3.33;;
58083;SDS011;43882;51.550;11.858;2023-12-22T13:26:44;15.57;;;3.17;;
58083;SDS011;43882;51.550;11.858;2023-12-22T13:29:11;17.90;;;2.90;;
58083;SDS011;43882;51.550;11.858;2023-12-22T13:31:38;18.58;;;3.80;;
58083;SDS011;43882;51.550;11.858;2023-12-22T13:34:09;17.98;;;3.15;;
58083;SDS011;43882;51.550;11.858;2023-12-22T13:36:35;13.40;;;2.85;;
58083;SDS011;43882;51.550;11.858;2023-12-22T13:39:02;14.18;;;2.88;;
58083;SDS011;43882;51.550;11.858;2023-12-22T13:41:31;18.02;;;4.00;;
58083;SDS011;43882;51.550;11.858;2023-12-22T13:44:06;14.02;;;3.30;;
58083;SDS011;43882;51.550;11.858;2023-12-22T13:46:33;16.85;;;3.90;;
58083;SDS011;43882;51.550;11.858;2023-12-22T13:49:00;13.52;;;3.08;;
58083;SDS011;43882;51.550;11.858;2023-12-22T13:51:27;16.77;;;3.40;;
58083;SDS011;43882;51.550;11.858;2023-12-22T13:54:13;17.15;;;3.65;;
58083;SDS011;43882;51.550;11.858;2023-12-22T13:56:39;16.38;;;4.10;;
58083;SDS011;43882;51.550;11.858;2023-12-22T13:59:06;14.20;;;2.92;;
58083;SDS011;43882;51.550;11.858;2023-12-22T14:01:33;16.98;;;4.80;;
58083;SDS011;43882;51.550;11.858;2023-12-22T14:03:59;14.48;;;3.50;;
58083;SDS011;43882;51.550;11.858;2023-12-22T14:06:25;14.82;;;4.10;;
58083;SDS011;43882;51.550;11.858;2023-12-22T14:08:52;16.55;;;4.00;;
58083;SDS011;43882;51.550;11.858;2023-12-22T14:11:19;14.13;;;2.80;;
58083;SDS011;43882;51.550;11.858;2023-12-22T14:13:45;15.35;;;3.60;;
58083;SDS011;43882;51.550;11.858;2023-12-22T14:16:11;13.52;;;2.95;;
58083;SDS011;43882;51.550;11.858;2023-12-22T14:18:38;13.60;;;3.63;;
58083;SDS011;43882;51.550;11.858;2023-12-22T14:21:04;16.73;;;3.35;;
58083;SDS011;43882;51.550;11.858;2023-12-22T14:23:31;15.75;;;3.30;;
58083;SDS011;43882;51.550;11.858;2023-12-22T14:25:57;18.42;;;3.75;;
58083;SDS011;43882;51.550;11.858;2023-12-22T14:28:23;16.15;;;3.42;;
58083;SDS011;43882;51.550;11.858;2023-12-22T14:30:49;15.15;;;3.25;;
58083;SDS011;43882;51.550;11.858;2023-12-22T14:33:15;17.65;;;3.60;;
58083;SDS011;43882;51.550;11.858;2023-12-22T14:35:42;17.17;;;3.05;;
58083;SDS011;43882;51.550;11.858;2023-12-22T14:38:08;14.40;;;3.30;;
58083;SDS011;43882;51.550;11.858;2023-12-22T14:40:34;15.40;;;3.72;;
58083;SDS011;43882;51.550;11.858;2023-12-22T14:43:00;17.83;;;4.10;;
58083;SDS011;43882;51.550;11.858;2023-12-22T14:45:27;16.88;;;4.13;;
58083;SDS011;43882;51.550;11.858;2023-12-22T14:47:53;18.15;;;4.10;;
58083;SDS011;43882;51.550;11.858;2023-12-22T14:50:19;17.15;;;3.70;;
58083;SDS011;43882;51.550;11.858;2023-12-22T14:52:45;16.50;;;3.72;;
58083;SDS011;43882;51.550;11.858;2023-12-22T14:55:11;17.70;;;3.92;;
58083;SDS011;43882;51.550;11.858;2023-12-22T14:57:37;15.50;;;3.80;;
58083;SDS011;43882;51.550;11.858;2023-12-22T15:00:04;18.10;;;5.55;;
58083;SDS011;43882;51.550;11.858;2023-12-22T15:02:31;13.98;;;3.45;;
58083;SDS011;43882;51.550;11.858;2023-12-22T15:04:57;11.95;;;3.00;;
58083;SDS011;43882;51.550;11.858;2023-12-22T15:07:23;14.60;;;3.08;;
58083;SDS011;43882;51.550;11.858;2023-12-22T15:09:49;12.20;;;2.70;;
58083;SDS011;43882;51.550;11.858;2023-12-22T15:12:15;6.80;;;1.90;;
58083;SDS011;43882;51.550;11.858;2023-12-22T15:14:45;9.13;;;2.20;;
58083;SDS011;43882;51.550;11.858;2023-12-22T15:17:12;6.88;;;2.00;;